KELN/ELN METAR and TAF weather

Enter ICAO airport designator
Station Type Date Time Source
KELN METAR 2023/02/06 17:53 UTC NOAA

KELN 061753Z AUTO 28010KT 10SM CLR 05/01 A3032 RMK AO2 SLP278 T00500011 10056 20039 53018


Station Type Date Time Source
KELN Decoded METAR 2023/02/06 17:53 UTC NOAA

ELLENSBURG BOWERS FIELD, WA, United States (KELN) 47-02N 120-32W 519M
Feb 06, 2023 - 12:53 PM EST / 2023.02.06 1753 UTC
Wind: from the W (280 degrees) at 12 MPH (10 KT):0
Visibility: 10 mile(s):0
Sky conditions: clear
Temperature: 41.0 F (5.0 C)
Dew Point: 34.0 F (1.1 C)
Relative Humidity: 75%
Pressure (altimeter): 30.32 in. Hg (1026 hPa)
Pressure tendency: 0.05 inches (1.8 hPa) higher than three hours ago
ob: KELN 061753Z AUTO 28010KT 10SM CLR 05/01 A3032 RMK AO2 SLP278 T00500011 10056 20039 53018
cycle: 18

Station Type Date Time Source
KELN TAF UTC NOAA

Error!

Example: see airport list